createdAt,value
2023-08-05T00:00:46.942Z,20.91
2023-08-05T00:03:14.483Z,20.83
2023-08-05T00:05:42.042Z,20.92
2023-08-05T00:08:09.559Z,21.00
2023-08-05T00:10:37.777Z,20.98
2023-08-05T00:13:05.865Z,20.73
2023-08-05T00:15:33.745Z,20.60
2023-08-05T00:18:04.560Z,20.66
2023-08-05T00:20:33.764Z,20.63
2023-08-05T00:23:01.846Z,20.72
2023-08-05T00:25:29.376Z,20.74
2023-08-05T00:27:57.021Z,20.88
2023-08-05T00:30:24.651Z,20.72
2023-08-05T00:32:52.613Z,20.60
2023-08-05T00:35:21.640Z,20.69
2023-08-05T00:37:49.788Z,20.77
2023-08-05T00:40:17.952Z,20.70
2023-08-05T00:42:46.154Z,20.61
2023-08-05T00:45:13.757Z,20.62
2023-08-05T00:47:42.823Z,20.58
2023-08-05T00:50:13.062Z,20.49
2023-08-05T00:52:41.764Z,20.56
2023-08-05T00:55:10.064Z,20.61
2023-08-05T00:57:38.083Z,20.59
2023-08-05T01:00:06.511Z,20.67
2023-08-05T01:02:34.725Z,20.46
2023-08-05T01:05:03.341Z,20.29
2023-08-05T01:07:33.943Z,20.33
2023-08-05T01:10:01.546Z,20.23
2023-08-05T01:12:29.614Z,20.10
2023-08-05T01:14:57.137Z,20.23
2023-08-05T01:17:25.277Z,20.27
2023-08-05T01:19:53.799Z,20.13
2023-08-05T01:22:42.430Z,20.07
2023-08-05T01:25:29.409Z,20.24
2023-08-05T01:27:59.416Z,20.27
2023-08-05T01:30:28.678Z,20.11
2023-08-05T01:32:59.345Z,20.15
2023-08-05T01:35:26.979Z,20.29
2023-08-05T01:37:54.731Z,20.39
2023-08-05T01:40:25.887Z,20.29
2023-08-05T01:42:53.403Z,20.01
2023-08-05T01:45:21.477Z,19.88
2023-08-05T01:47:50.031Z,20.04
2023-08-05T01:50:18.424Z,20.10
2023-08-05T01:52:46.005Z,19.87
2023-08-05T01:55:14.034Z,19.86
2023-08-05T01:57:42.017Z,19.61
2023-08-05T02:00:10.359Z,19.65
2023-08-05T02:02:44.202Z,19.60
2023-08-05T02:05:12.043Z,19.72
2023-08-05T02:07:39.636Z,19.70
2023-08-05T02:10:08.180Z,19.68
2023-08-05T02:12:35.777Z,19.59
2023-08-05T02:15:03.510Z,19.64
2023-08-05T02:17:31.693Z,19.54
2023-08-05T02:19:59.228Z,19.61
2023-08-05T02:22:27.234Z,19.83
2023-08-05T02:24:54.753Z,19.85
2023-08-05T02:27:22.662Z,19.87
2023-08-05T02:29:50.218Z,19.93
2023-08-05T02:32:18.285Z,20.05
2023-08-05T02:34:45.974Z,19.98
2023-08-05T02:37:13.885Z,20.06
2023-08-05T02:39:42.355Z,19.93
2023-08-05T02:42:09.943Z,20.09
2023-08-05T02:44:37.990Z,20.40
2023-08-05T02:47:05.630Z,20.56
2023-08-05T02:49:33.942Z,20.68
2023-08-05T02:52:01.509Z,20.70
2023-08-05T02:54:29.088Z,20.70
2023-08-05T02:56:56.731Z,20.80
2023-08-05T02:59:25.167Z,20.64
2023-08-05T03:01:52.825Z,20.74
2023-08-05T03:04:21.362Z,20.63
2023-08-05T03:06:49.078Z,20.71
2023-08-05T03:09:17.024Z,20.80
2023-08-05T03:11:45.046Z,20.71
2023-08-05T03:14:13.362Z,20.64
2023-08-05T03:16:42.887Z,20.74
2023-08-05T03:19:17.544Z,20.76
2023-08-05T03:21:45.157Z,20.59
2023-08-05T03:24:13.486Z,20.67
2023-08-05T03:26:44.630Z,20.69
2023-08-05T03:29:14.814Z,20.66
2023-08-05T03:31:43.741Z,20.70
2023-08-05T03:34:11.397Z,20.46
2023-08-05T03:36:39.254Z,20.46
2023-08-05T03:39:08.104Z,20.36
2023-08-05T03:41:36.180Z,20.45
2023-08-05T03:44:03.879Z,20.37
2023-08-05T03:46:31.462Z,20.40
2023-08-05T03:48:59.082Z,20.39
2023-08-05T03:51:28.220Z,20.56
2023-08-05T03:53:57.378Z,20.52
2023-08-05T03:56:28.410Z,20.48
2023-08-05T03:58:58.420Z,20.25
2023-08-05T04:01:27.577Z,19.94
2023-08-05T04:03:56.463Z,19.91
2023-08-05T04:06:26.824Z,19.72
2023-08-05T04:08:55.340Z,19.71
2023-08-05T04:11:23.433Z,19.84
2023-08-05T04:13:54.093Z,19.84
2023-08-05T04:16:24.043Z,19.90
2023-08-05T04:18:53.462Z,19.83
2023-08-05T04:21:24.655Z,19.66
2023-08-05T04:23:53.193Z,19.54
2023-08-05T04:26:21.066Z,19.69
2023-08-05T04:28:49.137Z,19.58
2023-08-05T04:31:16.737Z,19.62
2023-08-05T04:33:44.390Z,19.59
2023-08-05T04:36:12.504Z,19.70
2023-08-05T04:38:40.434Z,19.90
2023-08-05T04:41:07.948Z,19.71
2023-08-05T04:43:35.430Z,19.50
2023-08-05T04:46:03.187Z,19.71
2023-08-05T04:48:31.053Z,19.72
2023-08-05T04:50:58.844Z,19.67
2023-08-05T04:53:26.413Z,19.71
2023-08-05T04:55:53.961Z,19.81
2023-08-05T04:58:21.959Z,19.75
2023-08-05T05:00:49.584Z,19.74
2023-08-05T05:03:17.359Z,19.92
2023-08-05T05:05:45.694Z,19.81
2023-08-05T05:08:15.947Z,19.74
2023-08-05T05:10:47.345Z,20.22
2023-08-05T05:13:15.388Z,20.14
2023-08-05T05:15:43.047Z,20.09
2023-08-05T05:18:10.642Z,20.20
2023-08-05T05:20:38.735Z,19.95
2023-08-05T05:23:06.310Z,20.10
2023-08-05T05:25:33.967Z,19.83
2023-08-05T05:28:02.031Z,20.09
2023-08-05T05:30:29.546Z,19.98
2023-08-05T05:32:57.172Z,20.02
2023-08-05T05:35:25.064Z,20.01
2023-08-05T05:37:52.580Z,19.96
2023-08-05T05:40:20.069Z,20.10
2023-08-05T05:42:49.426Z,19.81
2023-08-05T05:45:17.337Z,19.75
2023-08-05T05:47:46.090Z,19.76
2023-08-05T05:50:14.097Z,19.60
2023-08-05T05:52:41.653Z,19.59
2023-08-05T05:55:10.230Z,19.57
2023-08-05T05:57:38.080Z,19.49
2023-08-05T06:00:06.350Z,19.69
2023-08-05T06:02:41.483Z,19.80
2023-08-05T06:05:10.323Z,20.15
2023-08-05T06:07:38.479Z,20.21
2023-08-05T06:10:06.553Z,19.79
2023-08-05T06:12:37.614Z,20.12
2023-08-05T06:15:09.101Z,20.10
2023-08-05T06:17:36.724Z,20.53
2023-08-05T06:20:05.423Z,20.31
2023-08-05T06:22:33.110Z,20.49
2023-08-05T06:25:01.129Z,20.36
2023-08-05T06:27:28.628Z,20.39
2023-08-05T06:29:57.076Z,20.40
2023-08-05T06:32:25.211Z,20.73
2023-08-05T06:34:53.150Z,20.96
2023-08-05T06:37:22.252Z,20.42
2023-08-05T06:39:49.842Z,20.68
2023-08-05T06:42:17.361Z,20.53
2023-08-05T06:44:45.590Z,20.08
2023-08-05T06:47:13.538Z,20.15
2023-08-05T06:49:41.532Z,20.19
2023-08-05T06:52:09.377Z,20.56
2023-08-05T06:54:37.066Z,20.73
2023-08-05T06:57:04.754Z,20.40
2023-08-05T06:59:32.384Z,20.86
2023-08-05T07:02:01.318Z,21.11
2023-08-05T07:04:29.342Z,21.07
2023-08-05T07:06:56.879Z,20.63
2023-08-05T07:09:25.326Z,20.91
2023-08-05T07:11:55.566Z,20.63
2023-08-05T07:14:23.620Z,21.13
2023-08-05T07:16:51.580Z,21.21
2023-08-05T07:19:19.235Z,21.01
2023-08-05T07:21:46.872Z,21.45
2023-08-05T07:24:14.411Z,21.36
2023-08-05T07:26:42.038Z,20.88
2023-08-05T07:29:09.600Z,20.86
2023-08-05T07:31:38.090Z,20.90
2023-08-05T07:34:06.079Z,21.37
2023-08-05T07:36:34.030Z,21.46
2023-08-05T07:39:05.033Z,21.70
2023-08-05T07:41:32.681Z,21.08
2023-08-05T07:44:02.135Z,21.09
2023-08-05T07:46:33.741Z,20.75
2023-08-05T07:49:01.571Z,21.17
2023-08-05T07:51:30.398Z,21.08
2023-08-05T07:53:58.973Z,21.47
2023-08-05T07:56:27.229Z,21.36
2023-08-05T07:58:54.859Z,21.35
2023-08-05T08:01:23.419Z,21.75
2023-08-05T08:03:55.626Z,21.62
2023-08-05T08:06:24.029Z,22.02
2023-08-05T08:08:52.516Z,22.67
2023-08-05T08:11:21.097Z,22.49
2023-08-05T08:13:49.010Z,23.14
2023-08-05T08:16:17.421Z,22.56
2023-08-05T08:18:45.538Z,22.90
2023-08-05T08:21:13.448Z,22.66
2023-08-05T08:23:40.972Z,22.93
2023-08-05T08:26:08.517Z,22.48
2023-08-05T08:28:36.116Z,22.11
2023-08-05T08:31:03.945Z,22.73
2023-08-05T08:33:31.699Z,22.65
2023-08-05T08:35:59.293Z,22.98
2023-08-05T08:38:27.076Z,22.67
2023-08-05T08:41:03.747Z,22.99
2023-08-05T08:43:32.072Z,23.69
2023-08-05T08:46:00.537Z,24.60
2023-08-05T08:48:29.986Z,23.29
2023-08-05T08:51:00.089Z,22.92
2023-08-05T08:53:28.465Z,23.99
2023-08-05T08:55:56.130Z,24.29
2023-08-05T08:58:24.053Z,24.30
2023-08-05T09:00:52.130Z,24.34
2023-08-05T09:03:25.087Z,24.30
2023-08-05T09:05:57.758Z,24.05
2023-08-05T09:08:26.589Z,24.88
2023-08-05T09:10:54.127Z,24.46
2023-08-05T09:13:22.922Z,25.16
2023-08-05T09:15:51.197Z,24.93
2023-08-05T09:18:18.855Z,25.02
2023-08-05T09:20:51.112Z,25.33
2023-08-05T09:23:18.665Z,25.68
2023-08-05T09:25:52.775Z,26.04
2023-08-05T09:28:33.114Z,25.44
2023-08-05T09:31:14.443Z,25.38
2023-08-05T09:33:43.348Z,24.48
2023-08-05T09:36:12.916Z,24.61
2023-08-05T09:38:41.148Z,25.25
2023-08-05T09:41:09.669Z,24.89
2023-08-05T09:43:44.768Z,24.81
2023-08-05T09:46:15.246Z,25.15
2023-08-05T09:48:44.744Z,26.00
2023-08-05T09:51:17.854Z,25.93
2023-08-05T09:53:52.386Z,25.32
2023-08-05T09:56:21.892Z,25.86
2023-08-05T09:58:50.132Z,26.23
2023-08-05T10:01:19.981Z,25.54
2023-08-05T10:03:49.486Z,25.41
2023-08-05T10:06:17.182Z,25.03
2023-08-05T10:08:48.121Z,24.88
2023-08-05T10:11:16.505Z,25.38
2023-08-05T10:13:48.602Z,25.44
2023-08-05T10:16:16.966Z,25.65
2023-08-05T10:18:45.874Z,25.53
2023-08-05T10:21:13.445Z,25.74
2023-08-05T10:23:41.099Z,24.64
2023-08-05T10:26:08.697Z,25.18
2023-08-05T10:28:36.218Z,25.71
2023-08-05T10:31:06.263Z,25.94
2023-08-05T10:34:09.601Z,25.53
2023-08-05T10:36:49.491Z,26.45
2023-08-05T10:40:01.947Z,27.07
2023-08-05T10:42:29.496Z,27.59
2023-08-05T10:44:59.427Z,27.72
2023-08-05T10:47:28.153Z,27.90
2023-08-05T10:49:59.992Z,28.91
2023-08-05T10:52:29.452Z,27.95
2023-08-05T10:54:57.756Z,27.94
2023-08-05T10:57:48.699Z,28.61
2023-08-05T11:00:21.567Z,27.49
2023-08-05T11:02:51.045Z,27.80
2023-08-05T11:05:19.163Z,28.39
2023-08-05T11:07:47.873Z,27.84
2023-08-05T11:10:15.543Z,27.82
2023-08-05T11:12:43.963Z,28.15
2023-08-05T11:15:11.946Z,28.52
2023-08-05T11:17:56.782Z,27.66
2023-08-05T11:20:32.449Z,27.29
2023-08-05T11:23:00.905Z,27.08
2023-08-05T11:25:29.951Z,27.60
2023-08-05T11:27:59.079Z,27.53
2023-08-05T11:30:26.699Z,27.09
2023-08-05T11:32:59.843Z,26.72
2023-08-05T11:35:27.769Z,26.96
2023-08-05T11:37:56.245Z,26.42
2023-08-05T11:40:25.132Z,25.50
2023-08-05T11:42:53.697Z,25.96
2023-08-05T11:45:21.380Z,26.06
2023-08-05T11:47:49.219Z,26.27
2023-08-05T11:50:17.023Z,26.47
2023-08-05T11:53:08.674Z,26.38
2023-08-05T11:55:37.773Z,27.00
2023-08-05T11:58:05.795Z,27.26
2023-08-05T12:00:34.906Z,27.27
2023-08-05T12:03:06.732Z,27.03
2023-08-05T12:05:34.742Z,27.50
2023-08-05T12:08:02.940Z,27.41
2023-08-05T12:10:31.278Z,27.24
2023-08-05T12:13:03.882Z,27.60
2023-08-05T12:15:32.554Z,27.70
2023-08-05T12:18:09.683Z,27.52
2023-08-05T12:20:38.653Z,27.90
2023-08-05T12:23:09.458Z,27.87
2023-08-05T12:25:37.131Z,28.05
2023-08-05T12:28:06.921Z,27.95
2023-08-05T12:30:34.886Z,28.10
2023-08-05T12:33:05.228Z,27.62
2023-08-05T12:35:34.562Z,27.78
2023-08-05T12:38:02.247Z,27.90
2023-08-05T12:40:29.865Z,28.09
2023-08-05T12:42:57.963Z,28.43
2023-08-05T12:45:25.549Z,28.99
2023-08-05T12:47:53.287Z,29.28
2023-08-05T12:50:21.167Z,29.33
2023-08-05T12:52:48.683Z,29.86
2023-08-05T12:55:16.204Z,29.93
2023-08-05T12:57:44.924Z,29.77
2023-08-05T13:00:14.112Z,30.11
2023-08-05T13:02:41.740Z,29.44
2023-08-05T13:05:09.515Z,28.82
2023-08-05T13:07:37.890Z,28.91
2023-08-05T13:10:06.205Z,29.23
2023-08-05T13:12:34.192Z,29.71
2023-08-05T13:15:01.684Z,30.05
2023-08-05T13:17:29.312Z,30.20
2023-08-05T13:19:57.316Z,30.36
2023-08-05T13:22:25.068Z,31.23
2023-08-05T13:24:53.117Z,32.61
2023-08-05T13:27:22.672Z,33.22
2023-08-05T13:29:50.666Z,33.13
2023-08-05T13:32:18.256Z,35.03
2023-08-05T13:34:46.369Z,36.61
2023-08-05T13:37:14.374Z,35.50
2023-08-05T13:39:41.872Z,35.20
2023-08-05T13:42:09.794Z,34.38
2023-08-05T13:44:37.851Z,33.26
2023-08-05T13:47:05.511Z,33.09
2023-08-05T13:49:33.508Z,32.95
2023-08-05T13:52:01.121Z,33.04
2023-08-05T13:54:29.110Z,31.95
2023-08-05T13:56:57.091Z,33.14
2023-08-05T13:59:24.612Z,33.46
2023-08-05T14:01:52.297Z,33.16
2023-08-05T14:04:20.105Z,32.50
2023-08-05T14:06:48.511Z,33.56
2023-08-05T14:09:16.113Z,34.12
2023-08-05T14:11:43.666Z,34.61
2023-08-05T14:14:11.180Z,37.59
2023-08-05T14:16:40.258Z,41.73
2023-08-05T14:19:08.805Z,40.85
2023-08-05T14:21:36.348Z,39.59
2023-08-05T14:24:04.693Z,37.17
2023-08-05T14:26:32.766Z,37.71
2023-08-05T14:29:00.454Z,39.98
2023-08-05T14:31:28.173Z,40.87
2023-08-05T14:33:55.749Z,41.90
2023-08-05T14:36:26.585Z,44.06
2023-08-05T14:38:54.188Z,43.17
2023-08-05T14:41:21.787Z,37.48
2023-08-05T14:43:49.739Z,37.99
2023-08-05T14:46:17.681Z,42.34
2023-08-05T14:48:48.052Z,43.87
2023-08-05T14:51:16.035Z,43.34
2023-08-05T14:53:43.573Z,38.54
2023-08-05T14:56:11.284Z,38.51
2023-08-05T14:58:38.898Z,38.59
2023-08-05T15:01:17.578Z,38.45
2023-08-05T15:03:49.799Z,40.45
2023-08-05T15:06:18.830Z,37.96
2023-08-05T15:08:55.274Z,35.07
2023-08-05T15:11:23.303Z,33.80
2023-08-05T15:13:51.447Z,32.77
2023-08-05T15:16:19.149Z,32.13
2023-08-05T15:18:46.817Z,30.88
2023-08-05T15:21:14.934Z,31.15
2023-08-05T15:23:42.504Z,31.14
2023-08-05T15:26:10.168Z,30.34
2023-08-05T15:28:37.726Z,30.41
2023-08-05T15:31:05.519Z,30.51
2023-08-05T15:33:33.180Z,30.02
2023-08-05T15:36:00.729Z,31.15
2023-08-05T15:38:28.769Z,34.60
2023-08-05T15:40:59.953Z,38.07
2023-08-05T15:43:27.571Z,37.57
2023-08-05T15:45:56.973Z,38.60
2023-08-05T15:48:25.696Z,41.95
2023-08-05T15:50:54.462Z,42.78
2023-08-05T15:53:21.945Z,40.92
2023-08-05T15:55:58.607Z,40.23
2023-08-05T15:58:28.419Z,40.79
2023-08-05T16:01:03.712Z,39.76
2023-08-05T16:03:32.491Z,40.13
2023-08-05T16:06:07.188Z,39.84
2023-08-05T16:08:36.248Z,39.07
2023-08-05T16:11:09.070Z,37.92
2023-08-05T16:13:37.656Z,38.82
2023-08-05T16:16:19.442Z,39.22
2023-08-05T16:18:47.364Z,40.48
2023-08-05T16:21:21.261Z,41.65
2023-08-05T16:23:58.611Z,40.24
2023-08-05T16:26:27.318Z,38.61
2023-08-05T16:28:55.077Z,38.15
2023-08-05T16:31:25.186Z,34.25
2023-08-05T16:33:53.428Z,32.09
2023-08-05T16:36:23.392Z,31.45
2023-08-05T16:38:51.640Z,31.75
2023-08-05T16:41:19.605Z,30.70
2023-08-05T16:43:47.200Z,31.36
2023-08-05T16:46:17.744Z,30.21
2023-08-05T16:48:45.442Z,30.45
2023-08-05T16:51:12.930Z,30.01
2023-08-05T16:53:40.550Z,30.05
2023-08-05T16:56:08.758Z,29.49
2023-08-05T16:58:36.926Z,28.69
2023-08-05T17:01:04.478Z,28.81
2023-08-05T17:03:32.021Z,28.58
2023-08-05T17:06:00.212Z,28.69
2023-08-05T17:08:27.826Z,28.70
2023-08-05T17:10:55.374Z,27.57
2023-08-05T17:13:22.997Z,27.83
2023-08-05T17:15:50.789Z,27.96
2023-08-05T17:18:18.380Z,27.91
2023-08-05T17:20:46.179Z,27.87
2023-08-05T17:23:13.736Z,28.18
2023-08-05T17:25:42.497Z,27.75
2023-08-05T17:28:10.451Z,27.97
2023-08-05T17:30:38.393Z,27.51
2023-08-05T17:33:06.872Z,27.16
2023-08-05T17:35:35.817Z,26.94
2023-08-05T17:38:04.273Z,26.65
2023-08-05T17:40:32.510Z,27.03
2023-08-05T17:43:00.157Z,27.01
2023-08-05T17:45:27.736Z,27.06
2023-08-05T17:47:55.287Z,27.02
2023-08-05T17:50:23.181Z,26.71
2023-08-05T17:52:50.791Z,26.46
2023-08-05T17:55:18.380Z,26.10
2023-08-05T17:57:45.954Z,26.18
2023-08-05T18:00:13.779Z,26.09
2023-08-05T18:02:41.759Z,26.23
2023-08-05T18:05:10.175Z,26.20
2023-08-05T18:07:37.688Z,26.10
2023-08-05T18:10:05.679Z,26.28
2023-08-05T18:12:34.323Z,26.05
2023-08-05T18:15:02.683Z,25.94
2023-08-05T18:17:30.774Z,25.94
2023-08-05T18:19:58.746Z,25.81
2023-08-05T18:22:26.737Z,25.94
2023-08-05T18:24:54.318Z,25.75
2023-08-05T18:27:21.957Z,25.64
2023-08-05T18:29:50.174Z,25.88
2023-08-05T18:32:18.112Z,25.89
2023-08-05T18:34:45.721Z,26.03
2023-08-05T18:37:13.312Z,25.77
2023-08-05T18:39:40.857Z,25.44
2023-08-05T18:42:08.858Z,25.35
2023-08-05T18:44:37.484Z,25.50
2023-08-05T18:47:06.120Z,25.61
2023-08-05T18:49:34.263Z,25.70
2023-08-05T18:52:02.122Z,25.70
2023-08-05T18:54:30.091Z,25.54
2023-08-05T18:56:58.602Z,25.31
2023-08-05T18:59:26.863Z,25.24
2023-08-05T19:01:54.628Z,25.27
2023-08-05T19:04:22.509Z,25.10
2023-08-05T19:06:50.259Z,25.10
2023-08-05T19:09:18.139Z,24.98
2023-08-05T19:11:48.398Z,25.13
2023-08-05T19:14:16.242Z,25.01
2023-08-05T19:16:43.902Z,24.85
2023-08-05T19:19:11.459Z,25.09
2023-08-05T19:21:39.574Z,25.16
2023-08-05T19:24:07.133Z,25.23
2023-08-05T19:26:40.453Z,25.28
2023-08-05T19:29:09.174Z,25.31
2023-08-05T19:31:37.258Z,25.00
2023-08-05T19:34:06.399Z,24.84
2023-08-05T19:36:34.085Z,24.95
2023-08-05T19:39:01.565Z,25.09
2023-08-05T19:41:29.505Z,25.16
2023-08-05T19:43:57.228Z,24.96
2023-08-05T19:46:25.056Z,24.85
2023-08-05T19:48:53.089Z,24.73
2023-08-05T19:51:21.353Z,24.67
2023-08-05T19:53:48.880Z,24.60
2023-08-05T19:56:16.608Z,24.17
2023-08-05T19:58:44.690Z,24.24
2023-08-05T20:01:13.143Z,24.06
2023-08-05T20:03:40.855Z,24.10
2023-08-05T20:06:08.939Z,24.01
2023-08-05T20:08:36.582Z,23.92
2023-08-05T20:11:04.378Z,23.98
2023-08-05T20:13:32.459Z,24.05
2023-08-05T20:16:01.118Z,24.22
2023-08-05T20:18:28.705Z,24.17
2023-08-05T20:20:56.829Z,24.03
2023-08-05T20:23:24.998Z,24.14
2023-08-05T20:25:53.167Z,24.09
2023-08-05T20:28:24.334Z,24.24
2023-08-05T20:30:53.861Z,23.99
2023-08-05T20:33:22.329Z,23.89
2023-08-05T20:35:50.334Z,23.81
2023-08-05T20:38:18.125Z,23.77
2023-08-05T20:43:19.395Z,23.73
2023-08-05T20:45:46.895Z,23.54
2023-08-05T20:48:14.563Z,23.67
2023-08-05T20:50:42.127Z,23.48
2023-08-05T20:53:11.838Z,23.38
2023-08-05T20:55:39.920Z,23.34
2023-08-05T20:58:07.441Z,23.42
2023-08-05T21:00:35.351Z,23.31
2023-08-05T21:03:03.088Z,23.45
2023-08-05T21:05:30.698Z,23.48
2023-08-05T21:07:58.734Z,23.63
2023-08-05T21:10:26.835Z,23.50
2023-08-05T21:12:54.473Z,23.41
2023-08-05T21:15:22.010Z,23.34
2023-08-05T21:17:49.606Z,23.28
2023-08-05T21:20:17.228Z,23.41
2023-08-05T21:22:45.203Z,23.29
2023-08-05T21:25:12.716Z,23.15
2023-08-05T21:27:40.824Z,23.18
2023-08-05T21:30:09.124Z,23.32
2023-08-05T21:32:36.778Z,23.41
2023-08-05T21:35:04.818Z,23.39
2023-08-05T21:37:33.661Z,23.35
2023-08-05T21:40:01.662Z,23.44
2023-08-05T21:42:29.286Z,23.44
2023-08-05T21:44:56.854Z,23.52
2023-08-05T21:47:24.802Z,23.59
2023-08-05T21:49:52.826Z,23.41
2023-08-05T21:52:20.940Z,23.34
2023-08-05T21:54:49.218Z,23.25
2023-08-05T21:57:16.900Z,23.11
2023-08-05T21:59:44.547Z,22.80
2023-08-05T22:02:12.153Z,22.97
2023-08-05T22:04:39.709Z,23.05
2023-08-05T22:07:07.278Z,23.01
2023-08-05T22:09:34.871Z,23.13
2023-08-05T22:12:08.282Z,22.91
2023-08-05T22:14:36.566Z,22.94
2023-08-05T22:17:04.242Z,23.04
2023-08-05T22:19:32.188Z,23.11
2023-08-05T22:21:59.786Z,22.91
2023-08-05T22:24:41.317Z,22.96
2023-08-05T22:27:10.719Z,22.61
2023-08-05T22:29:38.413Z,22.32
2023-08-05T22:32:06.602Z,22.34
2023-08-05T22:34:34.210Z,22.33
2023-08-05T22:37:06.474Z,22.41
2023-08-05T22:39:34.688Z,22.45
2023-08-05T22:42:03.848Z,22.52
2023-08-05T22:44:31.403Z,22.64
2023-08-05T22:46:59.132Z,22.70
2023-08-05T22:49:27.557Z,22.80
2023-08-05T22:51:55.312Z,22.55
2023-08-05T22:54:23.117Z,22.48
2023-08-05T22:56:51.150Z,22.28
2023-08-05T22:59:19.110Z,22.47
2023-08-05T23:01:47.086Z,22.58
2023-08-05T23:04:14.722Z,22.57
2023-08-05T23:06:42.645Z,22.28
2023-08-05T23:09:10.883Z,22.27
2023-08-05T23:11:38.878Z,22.06
2023-08-05T23:14:08.586Z,22.09
2023-08-05T23:16:36.214Z,21.96
2023-08-05T23:19:04.515Z,21.76
2023-08-05T23:21:32.110Z,21.75
2023-08-05T23:24:00.566Z,21.89
2023-08-05T23:26:28.793Z,21.81
2023-08-05T23:28:59.366Z,21.96
2023-08-05T23:31:27.076Z,22.07
2023-08-05T23:33:55.376Z,22.09
2023-08-05T23:36:23.091Z,22.16
2023-08-05T23:38:51.227Z,22.14
2023-08-05T23:41:18.820Z,22.07
2023-08-05T23:43:46.432Z,22.04
2023-08-05T23:46:14.204Z,21.75
2023-08-05T23:48:41.714Z,21.83
2023-08-05T23:51:09.779Z,21.55
2023-08-05T23:53:37.937Z,21.51
2023-08-05T23:56:05.780Z,21.54
2023-08-05T23:58:33.394Z,21.49
